sensor_id;sensor_type;location;lat;lon;timestamp;P1;durP1;ratioP1;P2;durP2;ratioP2
67227;SDS011;54139;42.616;23.748;2023-09-30T00:02:06;15.98;;;6.47;;
67227;SDS011;54139;42.616;23.748;2023-09-30T00:04:31;18.00;;;6.93;;
67227;SDS011;54139;42.616;23.748;2023-09-30T00:06:57;16.25;;;7.53;;
67227;SDS011;54139;42.616;23.748;2023-09-30T00:09:22;15.07;;;6.85;;
67227;SDS011;54139;42.616;23.748;2023-09-30T00:11:48;18.63;;;6.72;;
67227;SDS011;54139;42.616;23.748;2023-09-30T00:14:13;12.18;;;7.22;;
67227;SDS011;54139;42.616;23.748;2023-09-30T00:16:39;14.90;;;6.93;;
67227;SDS011;54139;42.616;23.748;2023-09-30T00:19:05;11.13;;;6.78;;
67227;SDS011;54139;42.616;23.748;2023-09-30T00:21:31;17.55;;;6.50;;
67227;SDS011;54139;42.616;23.748;2023-09-30T00:23:56;10.52;;;6.32;;
67227;SDS011;54139;42.616;23.748;2023-09-30T00:26:21;13.48;;;6.30;;
67227;SDS011;54139;42.616;23.748;2023-09-30T00:28:47;18.15;;;6.78;;
67227;SDS011;54139;42.616;23.748;2023-09-30T00:31:12;15.57;;;6.97;;
67227;SDS011;54139;42.616;23.748;2023-09-30T00:33:38;11.32;;;7.20;;
67227;SDS011;54139;42.616;23.748;2023-09-30T00:36:07;16.23;;;7.25;;
67227;SDS011;54139;42.616;23.748;2023-09-30T00:38:36;15.25;;;6.85;;
67227;SDS011;54139;42.616;23.748;2023-09-30T00:41:05;13.80;;;7.47;;
67227;SDS011;54139;42.616;23.748;2023-09-30T00:43:32;14.95;;;6.95;;
67227;SDS011;54139;42.616;23.748;2023-09-30T00:48:47;12.20;;;6.90;;
67227;SDS011;54139;42.616;23.748;2023-09-30T00:51:15;10.77;;;6.78;;
67227;SDS011;54139;42.616;23.748;2023-09-30T00:53:41;16.40;;;7.20;;
67227;SDS011;54139;42.616;23.748;2023-09-30T00:56:06;20.20;;;6.95;;
67227;SDS011;54139;42.616;23.748;2023-09-30T00:58:32;9.93;;;6.93;;
67227;SDS011;54139;42.616;23.748;2023-09-30T01:00:59;13.32;;;6.82;;
67227;SDS011;54139;42.616;23.748;2023-09-30T01:03:24;17.33;;;7.22;;
67227;SDS011;54139;42.616;23.748;2023-09-30T01:05:50;12.43;;;7.45;;
67227;SDS011;54139;42.616;23.748;2023-09-30T01:08:16;12.48;;;6.70;;
67227;SDS011;54139;42.616;23.748;2023-09-30T01:10:42;14.15;;;6.95;;
67227;SDS011;54139;42.616;23.748;2023-09-30T01:13:07;16.10;;;7.05;;
67227;SDS011;54139;42.616;23.748;2023-09-30T01:15:33;11.25;;;7.28;;
67227;SDS011;54139;42.616;23.748;2023-09-30T01:18:02;10.88;;;7.60;;
67227;SDS011;54139;42.616;23.748;2023-09-30T01:20:28;14.80;;;6.63;;
67227;SDS011;54139;42.616;23.748;2023-09-30T01:22:53;14.75;;;7.63;;
67227;SDS011;54139;42.616;23.748;2023-09-30T01:27:55;10.73;;;7.47;;
67227;SDS011;54139;42.616;23.748;2023-09-30T01:30:20;9.70;;;7.28;;
67227;SDS011;54139;42.616;23.748;2023-09-30T01:32:48;15.32;;;7.88;;
67227;SDS011;54139;42.616;23.748;2023-09-30T01:35:13;15.38;;;7.45;;
67227;SDS011;54139;42.616;23.748;2023-09-30T01:37:39;12.57;;;7.03;;
67227;SDS011;54139;42.616;23.748;2023-09-30T01:40:05;13.75;;;7.70;;
67227;SDS011;54139;42.616;23.748;2023-09-30T01:42:35;10.35;;;7.03;;
67227;SDS011;54139;42.616;23.748;2023-09-30T01:45:01;13.77;;;7.60;;
67227;SDS011;54139;42.616;23.748;2023-09-30T01:47:26;8.75;;;7.40;;
67227;SDS011;54139;42.616;23.748;2023-09-30T01:49:52;15.75;;;7.47;;
67227;SDS011;54139;42.616;23.748;2023-09-30T01:52:18;15.48;;;8.82;;
67227;SDS011;54139;42.616;23.748;2023-09-30T01:54:43;13.27;;;7.80;;
67227;SDS011;54139;42.616;23.748;2023-09-30T01:57:08;13.38;;;7.35;;
67227;SDS011;54139;42.616;23.748;2023-09-30T01:59:34;15.60;;;7.53;;
67227;SDS011;54139;42.616;23.748;2023-09-30T02:02:00;14.35;;;8.05;;
67227;SDS011;54139;42.616;23.748;2023-09-30T02:04:25;15.15;;;8.20;;
67227;SDS011;54139;42.616;23.748;2023-09-30T02:06:51;9.43;;;7.40;;
67227;SDS011;54139;42.616;23.748;2023-09-30T02:09:16;15.80;;;7.95;;
67227;SDS011;54139;42.616;23.748;2023-09-30T02:11:42;13.57;;;7.90;;
67227;SDS011;54139;42.616;23.748;2023-09-30T02:14:09;9.50;;;7.57;;
67227;SDS011;54139;42.616;23.748;2023-09-30T02:16:37;14.55;;;8.43;;
67227;SDS011;54139;42.616;23.748;2023-09-30T02:21:44;13.82;;;8.23;;
67227;SDS011;54139;42.616;23.748;2023-09-30T02:24:10;13.07;;;7.57;;
67227;SDS011;54139;42.616;23.748;2023-09-30T02:26:35;17.00;;;7.82;;
67227;SDS011;54139;42.616;23.748;2023-09-30T02:31:35;11.57;;;8.70;;
67227;SDS011;54139;42.616;23.748;2023-09-30T02:36:36;13.45;;;7.93;;
67227;SDS011;54139;42.616;23.748;2023-09-30T02:44:14;17.73;;;8.57;;
67227;SDS011;54139;42.616;23.748;2023-09-30T02:46:39;18.13;;;8.25;;
67227;SDS011;54139;42.616;23.748;2023-09-30T02:49:05;18.52;;;8.57;;
67227;SDS011;54139;42.616;23.748;2023-09-30T02:51:30;16.45;;;8.10;;
67227;SDS011;54139;42.616;23.748;2023-09-30T02:53:56;9.27;;;8.25;;
67227;SDS011;54139;42.616;23.748;2023-09-30T03:01:32;14.15;;;9.80;;
67227;SDS011;54139;42.616;23.748;2023-09-30T05:02:06;21.02;;;8.48;;
67227;SDS011;54139;42.616;23.748;2023-09-30T05:09:42;14.60;;;8.25;;
67227;SDS011;54139;42.616;23.748;2023-09-30T05:12:08;11.88;;;8.23;;
67227;SDS011;54139;42.616;23.748;2023-09-30T05:14:35;10.77;;;8.43;;
67227;SDS011;54139;42.616;23.748;2023-09-30T05:17:01;13.75;;;8.00;;
67227;SDS011;54139;42.616;23.748;2023-09-30T05:19:27;12.43;;;8.18;;
67227;SDS011;54139;42.616;23.748;2023-09-30T05:21:52;15.70;;;8.05;;
67227;SDS011;54139;42.616;23.748;2023-09-30T05:24:18;11.40;;;7.15;;
67227;SDS011;54139;42.616;23.748;2023-09-30T05:26:44;10.50;;;7.25;;
67227;SDS011;54139;42.616;23.748;2023-09-30T05:29:10;13.00;;;8.05;;
67227;SDS011;54139;42.616;23.748;2023-09-30T05:31:35;12.00;;;6.93;;
67227;SDS011;54139;42.616;23.748;2023-09-30T05:34:02;15.90;;;7.45;;
67227;SDS011;54139;42.616;23.748;2023-09-30T05:36:27;15.40;;;6.85;;
67227;SDS011;54139;42.616;23.748;2023-09-30T05:38:54;12.88;;;6.00;;
67227;SDS011;54139;42.616;23.748;2023-09-30T05:41:20;17.57;;;6.37;;
67227;SDS011;54139;42.616;23.748;2023-09-30T05:43:46;20.05;;;6.40;;
67227;SDS011;54139;42.616;23.748;2023-09-30T05:46:12;9.93;;;6.20;;
67227;SDS011;54139;42.616;23.748;2023-09-30T05:48:38;11.05;;;5.68;;
67227;SDS011;54139;42.616;23.748;2023-09-30T05:51:04;8.25;;;5.35;;
67227;SDS011;54139;42.616;23.748;2023-09-30T05:53:31;13.10;;;6.03;;
67227;SDS011;54139;42.616;23.748;2023-09-30T05:55:58;9.07;;;6.13;;
67227;SDS011;54139;42.616;23.748;2023-09-30T05:58:24;9.32;;;5.65;;
67227;SDS011;54139;42.616;23.748;2023-09-30T06:00:51;10.95;;;6.45;;
67227;SDS011;54139;42.616;23.748;2023-09-30T06:03:17;12.60;;;6.15;;
67227;SDS011;54139;42.616;23.748;2023-09-30T06:05:43;19.77;;;7.03;;
67227;SDS011;54139;42.616;23.748;2023-09-30T06:08:09;11.75;;;6.68;;
67227;SDS011;54139;42.616;23.748;2023-09-30T06:10:39;8.95;;;6.20;;
67227;SDS011;54139;42.616;23.748;2023-09-30T06:13:08;8.52;;;5.60;;
67227;SDS011;54139;42.616;23.748;2023-09-30T06:15:34;13.77;;;5.78;;
67227;SDS011;54139;42.616;23.748;2023-09-30T06:18:02;14.20;;;5.72;;
67227;SDS011;54139;42.616;23.748;2023-09-30T06:20:29;10.68;;;6.03;;
67227;SDS011;54139;42.616;23.748;2023-09-30T06:22:55;11.70;;;5.55;;
67227;SDS011;54139;42.616;23.748;2023-09-30T06:25:21;11.18;;;6.03;;
67227;SDS011;54139;42.616;23.748;2023-09-30T06:30:15;7.13;;;5.60;;
67227;SDS011;54139;42.616;23.748;2023-09-30T06:32:41;8.90;;;5.78;;
67227;SDS011;54139;42.616;23.748;2023-09-30T06:35:07;9.88;;;5.53;;
67227;SDS011;54139;42.616;23.748;2023-09-30T06:37:35;14.93;;;5.78;;
67227;SDS011;54139;42.616;23.748;2023-09-30T06:40:01;11.00;;;6.68;;
67227;SDS011;54139;42.616;23.748;2023-09-30T06:42:30;10.63;;;6.40;;
67227;SDS011;54139;42.616;23.748;2023-09-30T06:44:56;9.13;;;6.20;;
67227;SDS011;54139;42.616;23.748;2023-09-30T06:47:22;14.95;;;5.97;;
67227;SDS011;54139;42.616;23.748;2023-09-30T06:49:47;12.75;;;5.72;;
67227;SDS011;54139;42.616;23.748;2023-09-30T06:52:13;21.10;;;6.00;;
67227;SDS011;54139;42.616;23.748;2023-09-30T06:54:38;14.65;;;5.60;;
67227;SDS011;54139;42.616;23.748;2023-09-30T06:57:04;14.68;;;5.70;;
67227;SDS011;54139;42.616;23.748;2023-09-30T06:59:29;9.82;;;5.28;;
67227;SDS011;54139;42.616;23.748;2023-09-30T07:01:55;9.60;;;5.40;;
67227;SDS011;54139;42.616;23.748;2023-09-30T07:04:20;13.25;;;4.93;;
67227;SDS011;54139;42.616;23.748;2023-09-30T07:06:46;8.45;;;4.95;;
67227;SDS011;54139;42.616;23.748;2023-09-30T07:09:12;7.60;;;4.45;;
67227;SDS011;54139;42.616;23.748;2023-09-30T07:11:37;7.35;;;4.75;;
67227;SDS011;54139;42.616;23.748;2023-09-30T07:14:03;10.55;;;5.25;;
67227;SDS011;54139;42.616;23.748;2023-09-30T07:16:28;17.92;;;5.63;;
67227;SDS011;54139;42.616;23.748;2023-09-30T07:18:54;14.77;;;4.72;;
67227;SDS011;54139;42.616;23.748;2023-09-30T07:21:20;14.48;;;5.40;;
67227;SDS011;54139;42.616;23.748;2023-09-30T07:23:46;17.38;;;5.07;;
67227;SDS011;54139;42.616;23.748;2023-09-30T07:28:38;10.03;;;4.63;;
67227;SDS011;54139;42.616;23.748;2023-09-30T07:31:03;12.05;;;5.10;;
67227;SDS011;54139;42.616;23.748;2023-09-30T07:33:29;7.13;;;4.38;;
67227;SDS011;54139;42.616;23.748;2023-09-30T07:35:55;8.65;;;4.75;;
67227;SDS011;54139;42.616;23.748;2023-09-30T07:38:21;5.93;;;4.50;;
67227;SDS011;54139;42.616;23.748;2023-09-30T07:40:47;12.13;;;5.03;;
67227;SDS011;54139;42.616;23.748;2023-09-30T07:43:13;14.60;;;5.30;;
67227;SDS011;54139;42.616;23.748;2023-09-30T07:45:39;10.25;;;5.70;;
67227;SDS011;54139;42.616;23.748;2023-09-30T07:48:04;13.10;;;5.57;;
67227;SDS011;54139;42.616;23.748;2023-09-30T07:50:34;9.80;;;5.28;;
67227;SDS011;54139;42.616;23.748;2023-09-30T07:53:00;16.73;;;6.00;;
67227;SDS011;54139;42.616;23.748;2023-09-30T07:55:25;11.95;;;6.00;;
67227;SDS011;54139;42.616;23.748;2023-09-30T07:57:51;14.43;;;5.90;;
67227;SDS011;54139;42.616;23.748;2023-09-30T08:00:17;14.32;;;5.10;;
67227;SDS011;54139;42.616;23.748;2023-09-30T08:02:43;10.25;;;4.93;;
67227;SDS011;54139;42.616;23.748;2023-09-30T08:05:09;10.18;;;4.95;;
67227;SDS011;54139;42.616;23.748;2023-09-30T08:07:35;15.75;;;5.50;;
67227;SDS011;54139;42.616;23.748;2023-09-30T08:10:01;12.98;;;5.07;;
67227;SDS011;54139;42.616;23.748;2023-09-30T08:12:30;7.22;;;4.47;;
67227;SDS011;54139;42.616;23.748;2023-09-30T08:14:55;15.60;;;5.18;;
67227;SDS011;54139;42.616;23.748;2023-09-30T08:17:21;13.48;;;5.10;;
67227;SDS011;54139;42.616;23.748;2023-09-30T08:19:46;10.75;;;4.93;;
67227;SDS011;54139;42.616;23.748;2023-09-30T08:22:13;13.32;;;4.53;;
67227;SDS011;54139;42.616;23.748;2023-09-30T08:24:38;10.40;;;5.05;;
67227;SDS011;54139;42.616;23.748;2023-09-30T08:27:04;22.95;;;5.03;;
67227;SDS011;54139;42.616;23.748;2023-09-30T08:29:32;16.52;;;5.50;;
67227;SDS011;54139;42.616;23.748;2023-09-30T08:32:01;17.20;;;5.18;;
67227;SDS011;54139;42.616;23.748;2023-09-30T08:34:27;13.60;;;5.20;;
67227;SDS011;54139;42.616;23.748;2023-09-30T08:36:52;20.83;;;6.45;;
67227;SDS011;54139;42.616;23.748;2023-09-30T08:39:18;14.63;;;5.28;;
67227;SDS011;54139;42.616;23.748;2023-09-30T08:41:43;20.58;;;5.25;;
67227;SDS011;54139;42.616;23.748;2023-09-30T08:44:10;14.13;;;5.28;;
67227;SDS011;54139;42.616;23.748;2023-09-30T08:46:36;13.60;;;5.47;;
67227;SDS011;54139;42.616;23.748;2023-09-30T08:49:02;9.88;;;5.35;;
67227;SDS011;54139;42.616;23.748;2023-09-30T08:51:29;18.20;;;5.68;;
67227;SDS011;54139;42.616;23.748;2023-09-30T08:53:55;11.18;;;5.50;;
67227;SDS011;54139;42.616;23.748;2023-09-30T08:56:23;11.43;;;6.05;;
67227;SDS011;54139;42.616;23.748;2023-09-30T08:58:50;15.07;;;6.63;;
67227;SDS011;54139;42.616;23.748;2023-09-30T09:01:15;12.52;;;6.05;;
67227;SDS011;54139;42.616;23.748;2023-09-30T09:03:41;10.40;;;5.25;;
67227;SDS011;54139;42.616;23.748;2023-09-30T09:06:06;13.05;;;5.80;;
67227;SDS011;54139;42.616;23.748;2023-09-30T09:08:32;24.27;;;6.47;;
67227;SDS011;54139;42.616;23.748;2023-09-30T09:10:58;9.40;;;4.88;;
67227;SDS011;54139;42.616;23.748;2023-09-30T09:13:25;9.02;;;5.25;;
67227;SDS011;54139;42.616;23.748;2023-09-30T09:16:10;11.55;;;5.68;;
67227;SDS011;54139;42.616;23.748;2023-09-30T09:18:35;10.70;;;5.63;;
67227;SDS011;54139;42.616;23.748;2023-09-30T09:21:20;10.70;;;5.70;;
67227;SDS011;54139;42.616;23.748;2023-09-30T09:23:48;12.25;;;5.68;;
67227;SDS011;54139;42.616;23.748;2023-09-30T09:26:30;9.57;;;5.10;;
67227;SDS011;54139;42.616;23.748;2023-09-30T09:29:00;7.25;;;5.10;;
67227;SDS011;54139;42.616;23.748;2023-09-30T09:31:27;13.18;;;5.43;;
67227;SDS011;54139;42.616;23.748;2023-09-30T09:33:57;12.07;;;4.78;;
67227;SDS011;54139;42.616;23.748;2023-09-30T09:36:38;10.30;;;4.72;;
67227;SDS011;54139;42.616;23.748;2023-09-30T09:39:06;13.75;;;4.53;;
67227;SDS011;54139;42.616;23.748;2023-09-30T09:41:31;4.95;;;3.33;;
67227;SDS011;54139;42.616;23.748;2023-09-30T09:43:57;6.43;;;3.22;;
67227;SDS011;54139;42.616;23.748;2023-09-30T09:46:24;6.93;;;3.38;;
67227;SDS011;54139;42.616;23.748;2023-09-30T09:48:50;4.10;;;3.42;;
67227;SDS011;54139;42.616;23.748;2023-09-30T09:51:17;9.15;;;3.10;;
67227;SDS011;54139;42.616;23.748;2023-09-30T09:53:42;10.90;;;3.72;;
67227;SDS011;54139;42.616;23.748;2023-09-30T09:56:09;6.57;;;3.58;;
67227;SDS011;54139;42.616;23.748;2023-09-30T09:58:38;7.80;;;3.03;;
67227;SDS011;54139;42.616;23.748;2023-09-30T10:01:06;3.78;;;3.40;;
67227;SDS011;54139;42.616;23.748;2023-09-30T10:03:32;12.93;;;3.70;;
67227;SDS011;54139;42.616;23.748;2023-09-30T10:05:58;7.72;;;3.63;;
67227;SDS011;54139;42.616;23.748;2023-09-30T10:08:28;7.38;;;3.30;;
67227;SDS011;54139;42.616;23.748;2023-09-30T10:10:57;8.20;;;3.05;;
67227;SDS011;54139;42.616;23.748;2023-09-30T10:14:07;11.57;;;3.38;;
67227;SDS011;54139;42.616;23.748;2023-09-30T10:19:09;8.50;;;3.67;;
67227;SDS011;54139;42.616;23.748;2023-09-30T10:21:36;9.75;;;3.38;;
67227;SDS011;54139;42.616;23.748;2023-09-30T10:30:15;4.00;;;3.60;;
67227;SDS011;54139;42.616;23.748;2023-09-30T10:37:52;7.25;;;3.65;;
67227;SDS011;54139;42.616;23.748;2023-09-30T10:40:47;5.30;;;3.47;;
67227;SDS011;54139;42.616;23.748;2023-09-30T10:45:56;10.57;;;4.13;;
67227;SDS011;54139;42.616;23.748;2023-09-30T10:51:00;7.40;;;3.92;;
67227;SDS011;54139;42.616;23.748;2023-09-30T10:53:29;11.52;;;4.00;;
67227;SDS011;54139;42.616;23.748;2023-09-30T10:58:40;8.70;;;5.22;;
67227;SDS011;54139;42.616;23.748;2023-09-30T11:01:20;10.45;;;4.65;;
67227;SDS011;54139;42.616;23.748;2023-09-30T11:03:46;12.75;;;5.68;;
67227;SDS011;54139;42.616;23.748;2023-09-30T11:06:13;7.43;;;4.72;;
67227;SDS011;54139;42.616;23.748;2023-09-30T11:08:44;14.00;;;5.18;;
67227;SDS011;54139;42.616;23.748;2023-09-30T11:11:16;10.75;;;5.53;;
67227;SDS011;54139;42.616;23.748;2023-09-30T11:13:42;13.57;;;5.32;;
67227;SDS011;54139;42.616;23.748;2023-09-30T11:16:07;11.95;;;4.95;;
67227;SDS011;54139;42.616;23.748;2023-09-30T11:18:33;7.70;;;4.20;;
67227;SDS011;54139;42.616;23.748;2023-09-30T11:21:09;10.27;;;4.65;;
67227;SDS011;54139;42.616;23.748;2023-09-30T11:23:36;20.05;;;10.48;;
67227;SDS011;54139;42.616;23.748;2023-09-30T11:26:03;8.27;;;5.07;;
67227;SDS011;54139;42.616;23.748;2023-09-30T11:28:40;14.02;;;5.28;;
67227;SDS011;54139;42.616;23.748;2023-09-30T11:31:10;7.22;;;5.30;;
67227;SDS011;54139;42.616;23.748;2023-09-30T11:36:22;9.68;;;4.75;;
67227;SDS011;54139;42.616;23.748;2023-09-30T11:38:49;6.93;;;4.93;;
67227;SDS011;54139;42.616;23.748;2023-09-30T11:41:15;14.20;;;5.38;;
67227;SDS011;54139;42.616;23.748;2023-09-30T11:44:00;9.30;;;4.40;;
67227;SDS011;54139;42.616;23.748;2023-09-30T11:46:30;7.93;;;4.68;;
67227;SDS011;54139;42.616;23.748;2023-09-30T11:51:28;7.78;;;4.60;;
67227;SDS011;54139;42.616;23.748;2023-09-30T11:53:54;11.55;;;4.10;;
67227;SDS011;54139;42.616;23.748;2023-09-30T11:56:20;8.55;;;4.15;;
67227;SDS011;54139;42.616;23.748;2023-09-30T11:58:47;6.65;;;4.70;;
67227;SDS011;54139;42.616;23.748;2023-09-30T12:01:14;10.63;;;4.65;;
67227;SDS011;54139;42.616;23.748;2023-09-30T12:03:39;10.20;;;3.60;;
67227;SDS011;54139;42.616;23.748;2023-09-30T12:06:05;8.85;;;4.22;;
67227;SDS011;54139;42.616;23.748;2023-09-30T12:08:31;9.05;;;3.83;;
67227;SDS011;54139;42.616;23.748;2023-09-30T12:10:57;6.82;;;4.35;;
67227;SDS011;54139;42.616;23.748;2023-09-30T12:13:24;9.35;;;4.22;;
67227;SDS011;54139;42.616;23.748;2023-09-30T12:15:50;7.75;;;3.85;;
67227;SDS011;54139;42.616;23.748;2023-09-30T12:18:18;10.25;;;4.50;;
67227;SDS011;54139;42.616;23.748;2023-09-30T12:20:48;5.57;;;3.85;;
67227;SDS011;54139;42.616;23.748;2023-09-30T12:23:14;9.23;;;4.05;;
67227;SDS011;54139;42.616;23.748;2023-09-30T12:25:39;6.25;;;4.72;;
67227;SDS011;54139;42.616;23.748;2023-09-30T12:28:05;11.68;;;4.85;;
67227;SDS011;54139;42.616;23.748;2023-09-30T12:30:30;7.13;;;3.75;;
67227;SDS011;54139;42.616;23.748;2023-09-30T12:32:57;5.53;;;3.85;;
67227;SDS011;54139;42.616;23.748;2023-09-30T12:35:22;5.93;;;3.55;;
67227;SDS011;54139;42.616;23.748;2023-09-30T12:37:48;11.85;;;3.92;;
67227;SDS011;54139;42.616;23.748;2023-09-30T12:40:13;5.90;;;3.75;;
67227;SDS011;54139;42.616;23.748;2023-09-30T12:42:42;9.77;;;4.07;;
67227;SDS011;54139;42.616;23.748;2023-09-30T12:45:08;11.02;;;4.22;;
67227;SDS011;54139;42.616;23.748;2023-09-30T12:47:34;8.23;;;4.35;;
67227;SDS011;54139;42.616;23.748;2023-09-30T12:49:59;9.90;;;3.80;;
67227;SDS011;54139;42.616;23.748;2023-09-30T12:52:25;9.90;;;3.78;;
67227;SDS011;54139;42.616;23.748;2023-09-30T12:54:50;9.15;;;4.25;;
67227;SDS011;54139;42.616;23.748;2023-09-30T12:57:16;6.85;;;4.18;;
67227;SDS011;54139;42.616;23.748;2023-09-30T12:59:45;9.27;;;3.53;;
67227;SDS011;54139;42.616;23.748;2023-09-30T13:02:12;9.70;;;3.72;;
67227;SDS011;54139;42.616;23.748;2023-09-30T13:04:38;10.18;;;4.30;;
67227;SDS011;54139;42.616;23.748;2023-09-30T13:07:11;11.65;;;4.07;;
67227;SDS011;54139;42.616;23.748;2023-09-30T13:09:38;9.40;;;4.20;;
67227;SDS011;54139;42.616;23.748;2023-09-30T13:12:04;10.40;;;4.32;;
67227;SDS011;54139;42.616;23.748;2023-09-30T13:14:30;6.85;;;3.50;;
67227;SDS011;54139;42.616;23.748;2023-09-30T13:16:55;6.38;;;3.75;;
67227;SDS011;54139;42.616;23.748;2023-09-30T13:19:20;9.23;;;3.75;;
67227;SDS011;54139;42.616;23.748;2023-09-30T13:21:50;7.95;;;4.43;;
67227;SDS011;54139;42.616;23.748;2023-09-30T13:24:16;7.20;;;3.67;;
67227;SDS011;54139;42.616;23.748;2023-09-30T13:26:41;7.07;;;4.05;;
67227;SDS011;54139;42.616;23.748;2023-09-30T13:29:07;9.70;;;4.63;;
67227;SDS011;54139;42.616;23.748;2023-09-30T13:31:34;10.70;;;3.90;;
67227;SDS011;54139;42.616;23.748;2023-09-30T13:34:02;13.15;;;4.28;;
67227;SDS011;54139;42.616;23.748;2023-09-30T13:36:28;6.97;;;3.90;;
67227;SDS011;54139;42.616;23.748;2023-09-30T13:38:55;12.98;;;4.25;;
67227;SDS011;54139;42.616;23.748;2023-09-30T13:41:20;6.03;;;4.22;;
67227;SDS011;54139;42.616;23.748;2023-09-30T13:43:46;7.07;;;3.70;;
67227;SDS011;54139;42.616;23.748;2023-09-30T13:46:11;8.07;;;4.20;;
67227;SDS011;54139;42.616;23.748;2023-09-30T13:48:37;4.40;;;4.00;;
67227;SDS011;54139;42.616;23.748;2023-09-30T13:51:04;7.63;;;4.40;;
67227;SDS011;54139;42.616;23.748;2023-09-30T13:53:32;9.65;;;4.75;;
67227;SDS011;54139;42.616;23.748;2023-09-30T13:55:58;10.45;;;4.78;;
67227;SDS011;54139;42.616;23.748;2023-09-30T13:58:23;4.57;;;4.07;;
67227;SDS011;54139;42.616;23.748;2023-09-30T14:00:49;11.27;;;4.57;;
67227;SDS011;54139;42.616;23.748;2023-09-30T14:03:17;11.95;;;4.53;;
67227;SDS011;54139;42.616;23.748;2023-09-30T14:05:44;7.68;;;4.40;;
67227;SDS011;54139;42.616;23.748;2023-09-30T14:08:10;12.05;;;4.30;;
67227;SDS011;54139;42.616;23.748;2023-09-30T14:10:36;8.43;;;4.68;;
67227;SDS011;54139;42.616;23.748;2023-09-30T14:13:02;13.23;;;5.15;;
67227;SDS011;54139;42.616;23.748;2023-09-30T14:15:28;9.57;;;4.28;;
67227;SDS011;54139;42.616;23.748;2023-09-30T14:17:54;7.88;;;4.45;;
67227;SDS011;54139;42.616;23.748;2023-09-30T14:20:23;10.98;;;5.00;;
67227;SDS011;54139;42.616;23.748;2023-09-30T14:22:49;8.85;;;4.53;;
67227;SDS011;54139;42.616;23.748;2023-09-30T14:25:16;7.65;;;4.32;;
67227;SDS011;54139;42.616;23.748;2023-09-30T14:27:42;9.90;;;4.70;;
67227;SDS011;54139;42.616;23.748;2023-09-30T14:30:07;5.57;;;4.35;;
67227;SDS011;54139;42.616;23.748;2023-09-30T14:32:33;6.97;;;4.57;;
67227;SDS011;54139;42.616;23.748;2023-09-30T14:34:59;8.45;;;4.78;;
67227;SDS011;54139;42.616;23.748;2023-09-30T14:37:24;9.98;;;4.70;;
67227;SDS011;54139;42.616;23.748;2023-09-30T14:39:50;12.10;;;4.28;;
67227;SDS011;54139;42.616;23.748;2023-09-30T14:42:15;9.73;;;4.40;;
67227;SDS011;54139;42.616;23.748;2023-09-30T14:44:41;12.95;;;4.30;;
67227;SDS011;54139;42.616;23.748;2023-09-30T14:47:07;10.48;;;4.25;;
67227;SDS011;54139;42.616;23.748;2023-09-30T14:49:33;6.07;;;4.40;;
67227;SDS011;54139;42.616;23.748;2023-09-30T14:51:59;9.50;;;4.60;;
67227;SDS011;54139;42.616;23.748;2023-09-30T14:54:25;6.63;;;4.07;;
67227;SDS011;54139;42.616;23.748;2023-09-30T14:56:50;7.10;;;4.10;;
67227;SDS011;54139;42.616;23.748;2023-09-30T14:59:16;9.48;;;4.40;;
67227;SDS011;54139;42.616;23.748;2023-09-30T15:01:41;7.03;;;3.65;;
67227;SDS011;54139;42.616;23.748;2023-09-30T15:04:07;10.23;;;4.32;;
67227;SDS011;54139;42.616;23.748;2023-09-30T15:06:33;7.22;;;4.30;;
67227;SDS011;54139;42.616;23.748;2023-09-30T15:08:59;7.13;;;4.38;;
67227;SDS011;54139;42.616;23.748;2023-09-30T15:11:26;9.90;;;4.60;;
67227;SDS011;54139;42.616;23.748;2023-09-30T15:13:52;12.63;;;4.95;;
67227;SDS011;54139;42.616;23.748;2023-09-30T15:16:18;5.35;;;4.38;;
67227;SDS011;54139;42.616;23.748;2023-09-30T15:18:45;12.68;;;4.85;;
67227;SDS011;54139;42.616;23.748;2023-09-30T15:21:12;15.30;;;4.78;;
67227;SDS011;54139;42.616;23.748;2023-09-30T15:23:38;11.60;;;4.40;;
67227;SDS011;54139;42.616;23.748;2023-09-30T15:26:04;8.70;;;4.18;;
67227;SDS011;54139;42.616;23.748;2023-09-30T15:28:30;13.77;;;5.05;;
67227;SDS011;54139;42.616;23.748;2023-09-30T15:30:57;11.07;;;4.85;;
67227;SDS011;54139;42.616;23.748;2023-09-30T15:33:23;11.07;;;4.80;;
67227;SDS011;54139;42.616;23.748;2023-09-30T15:35:49;12.45;;;4.78;;
67227;SDS011;54139;42.616;23.748;2023-09-30T15:38:15;7.55;;;4.88;;
67227;SDS011;54139;42.616;23.748;2023-09-30T15:40:50;15.82;;;5.03;;
67227;SDS011;54139;42.616;23.748;2023-09-30T15:43:22;12.02;;;4.40;;
67227;SDS011;54139;42.616;23.748;2023-09-30T15:45:50;7.65;;;4.45;;
67227;SDS011;54139;42.616;23.748;2023-09-30T15:48:16;18.38;;;5.47;;
67227;SDS011;54139;42.616;23.748;2023-09-30T15:50:42;13.75;;;5.70;;
67227;SDS011;54139;42.616;23.748;2023-09-30T15:53:07;13.40;;;5.00;;
67227;SDS011;54139;42.616;23.748;2023-09-30T15:55:33;9.57;;;5.18;;
67227;SDS011;54139;42.616;23.748;2023-09-30T15:57:58;10.75;;;5.57;;
67227;SDS011;54139;42.616;23.748;2023-09-30T16:00:24;11.57;;;5.32;;
67227;SDS011;54139;42.616;23.748;2023-09-30T16:02:50;10.98;;;5.10;;
67227;SDS011;54139;42.616;23.748;2023-09-30T16:05:16;10.40;;;5.15;;
67227;SDS011;54139;42.616;23.748;2023-09-30T16:07:41;10.65;;;5.28;;
67227;SDS011;54139;42.616;23.748;2023-09-30T16:10:09;10.57;;;5.30;;
67227;SDS011;54139;42.616;23.748;2023-09-30T16:12:36;7.80;;;5.10;;
67227;SDS011;54139;42.616;23.748;2023-09-30T16:15:04;37.08;;;17.05;;
67227;SDS011;54139;42.616;23.748;2023-09-30T16:17:31;17.33;;;9.88;;
67227;SDS011;54139;42.616;23.748;2023-09-30T16:19:56;26.35;;;15.00;;
67227;SDS011;54139;42.616;23.748;2023-09-30T16:22:22;34.92;;;14.57;;
67227;SDS011;54139;42.616;23.748;2023-09-30T16:24:47;20.25;;;10.65;;
67227;SDS011;54139;42.616;23.748;2023-09-30T16:27:13;24.17;;;11.57;;
67227;SDS011;54139;42.616;23.748;2023-09-30T16:29:39;23.73;;;12.25;;
67227;SDS011;54139;42.616;23.748;2023-09-30T16:32:04;14.00;;;8.95;;
67227;SDS011;54139;42.616;23.748;2023-09-30T16:34:30;19.02;;;7.97;;
67227;SDS011;54139;42.616;23.748;2023-09-30T16:36:55;24.35;;;8.02;;
67227;SDS011;54139;42.616;23.748;2023-09-30T16:39:21;24.08;;;10.18;;
67227;SDS011;54139;42.616;23.748;2023-09-30T16:41:46;50.55;;;18.73;;
67227;SDS011;54139;42.616;23.748;2023-09-30T16:44:12;63.85;;;22.35;;
67227;SDS011;54139;42.616;23.748;2023-09-30T16:46:37;39.00;;;16.85;;
67227;SDS011;54139;42.616;23.748;2023-09-30T16:49:03;57.70;;;20.95;;
67227;SDS011;54139;42.616;23.748;2023-09-30T16:51:29;49.47;;;20.70;;
67227;SDS011;54139;42.616;23.748;2023-09-30T16:53:54;54.58;;;18.73;;
67227;SDS011;54139;42.616;23.748;2023-09-30T16:56:20;42.45;;;17.33;;
67227;SDS011;54139;42.616;23.748;2023-09-30T16:58:45;75.47;;;28.65;;
67227;SDS011;54139;42.616;23.748;2023-09-30T17:01:11;103.80;;;39.80;;
67227;SDS011;54139;42.616;23.748;2023-09-30T17:03:38;126.45;;;50.40;;
67227;SDS011;54139;42.616;23.748;2023-09-30T17:06:04;201.75;;;86.47;;
67227;SDS011;54139;42.616;23.748;2023-09-30T17:08:29;126.93;;;51.05;;
67227;SDS011;54139;42.616;23.748;2023-09-30T17:10:55;58.45;;;23.92;;
67227;SDS011;54139;42.616;23.748;2023-09-30T17:13:20;52.03;;;21.17;;
67227;SDS011;54139;42.616;23.748;2023-09-30T17:15:46;80.35;;;21.65;;
67227;SDS011;54139;42.616;23.748;2023-09-30T17:18:12;28.05;;;13.05;;
67227;SDS011;54139;42.616;23.748;2023-09-30T17:20:41;21.42;;;9.50;;
67227;SDS011;54139;42.616;23.748;2023-09-30T17:23:09;27.00;;;9.38;;